Time;durP1;ratioP1;P1;durP2;ratioP2;P2;SDS_P1;SDS_P2;PMS_P1;PMS_P2;Temp;Humidity;BMP_temperature;BMP_pressure;BME280_temperature;BME280_humidity;BME280_pressure;Samples;Min_cycle;Max_cycle;Signal;HPM_P1;HPM_P2
2021/11/08 00:01:58;;;;;;;6.55;5.03;;;7.10;99.90;;;;;;5072886;28;20039;-65
2021/11/08 00:04:24;;;;;;;10.03;5.57;;;7.20;99.90;;;;;;5071774;28;20027;-66
2021/11/08 00:06:51;;;;;;;6.95;5.13;;;7.30;99.90;;;;;;5075224;28;20031;-66
2021/11/08 00:09:17;;;;;;;6.15;4.80;;;7.20;99.90;;;;;;5077372;28;20020;-66
2021/11/08 00:11:44;;;;;;;7.68;4.68;;;7.20;99.90;;;;;;5072427;28;20386;-65
2021/11/08 00:14:12;;;;;;;4.97;4.47;;;9.30;99.90;;;;;;5072380;28;20034;-65
2021/11/08 00:19:35;;;;;;;6.80;4.65;;;7.60;99.90;;;;;;5072064;28;20090;-68
2021/11/08 00:22:02;;;;;;;7.13;4.50;;;7.30;99.90;;;;;;5072304;28;20057;-66
2021/11/08 00:24:31;;;;;;;6.00;4.03;;;7.30;99.90;;;;;;5071463;28;20028;-66
2021/11/08 00:26:56;;;;;;;5.30;4.53;;;7.30;99.90;;;;;;5072208;28;20031;-65
2021/11/08 00:29:22;;;;;;;5.25;4.10;;;7.30;99.90;;;;;;5072102;28;20021;-65
2021/11/08 00:31:48;;;;;;;5.78;4.00;;;7.20;99.90;;;;;;5072118;28;20024;-65
2021/11/08 00:34:14;;;;;;;5.78;4.05;;;7.30;99.90;;;;;;5071994;28;20037;-66
2021/11/08 00:36:40;;;;;;;5.25;4.03;;;7.30;99.90;;;;;;5071814;28;20486;-64
2021/11/08 00:39:06;;;;;;;6.10;4.43;;;7.30;99.90;;;;;;5071358;28;20031;-65
2021/11/08 00:41:33;;;;;;;4.50;4.10;;;7.30;99.90;;;;;;5071672;28;20394;-65
2021/11/08 00:43:59;;;;;;;6.80;4.40;;;7.30;99.90;;;;;;5071378;28;20410;-64
2021/11/08 00:46:25;;;;;;;9.27;4.45;;;7.20;99.90;;;;;;5071061;28;20043;-64
2021/11/08 00:48:51;;;;;;;6.78;4.68;;;7.30;99.90;;;;;;5071228;28;20087;-64
2021/11/08 00:51:18;;;;;;;3.90;3.55;;;7.30;99.90;;;;;;5071791;28;20181;-66
2021/11/08 00:53:45;;;;;;;4.85;4.03;;;7.30;99.90;;;;;;5071567;28;20024;-66
2021/11/08 00:56:16;;;;;;;5.88;4.03;;;7.20;99.90;;;;;;5071258;28;20028;-65
2021/11/08 00:58:43;;;;;;;4.15;3.83;;;7.10;99.90;;;;;;5071343;28;20028;-64
2021/11/08 01:01:11;;;;;;;5.93;3.97;;;7.20;99.90;;;;;;5071505;28;20550;-66
2021/11/08 01:03:43;;;;;;;4.47;3.22;;;7.20;99.90;;;;;;5071596;28;20021;-66
2021/11/08 01:06:10;;;;;;;7.63;3.50;;;7.20;99.90;;;;;;5071016;28;20389;-66
2021/11/08 01:08:36;;;;;;;5.20;4.18;;;7.20;99.90;;;;;;5071225;28;20283;-66
2021/11/08 01:11:02;;;;;;;6.20;3.65;;;7.20;99.90;;;;;;5071291;28;20060;-66
2021/11/08 01:13:28;;;;;;;5.18;3.97;;;7.30;99.90;;;;;;5071494;28;20020;-66
2021/11/08 01:15:55;;;;;;;6.68;4.30;;;7.30;99.90;;;;;;5070995;28;20457;-65
2021/11/08 01:18:21;;;;;;;4.55;3.72;;;7.20;99.90;;;;;;5071336;28;20036;-66
2021/11/08 01:20:48;;;;;;;6.45;3.83;;;7.20;99.90;;;;;;5071432;28;20141;-65
2021/11/08 01:23:15;;;;;;;5.30;4.20;;;7.20;99.90;;;;;;5071674;28;20111;-65
2021/11/08 01:25:42;;;;;;;5.55;3.97;;;7.30;99.90;;;;;;5070810;28;20021;-65
2021/11/08 01:28:10;;;;;;;8.05;4.82;;;7.10;99.90;;;;;;5072060;28;20054;-66
2021/11/08 01:30:35;;;;;;;6.60;5.93;;;7.10;99.90;;;;;;5057762;28;20058;-66
2021/11/08 01:33:04;;;;;;;5.35;4.85;;;7.10;99.90;;;;;;5051544;28;20028;-65
2021/11/08 01:38:06;;;;;;;13.20;5.50;;;7.10;99.90;;;;;;5051834;28;20403;-66
2021/11/08 01:40:33;;;;;;;5.68;5.15;;;7.10;99.90;;;;;;5051865;28;20029;-66
2021/11/08 01:42:59;;;;;;;4.93;4.53;;;7.10;99.90;;;;;;5051872;28;20025;-65
2021/11/08 01:45:25;;;;;;;7.80;5.30;;;7.00;99.90;;;;;;5050967;28;20025;-65
2021/11/08 01:47:51;;;;;;;8.70;5.30;;;7.20;99.90;;;;;;5051995;28;20029;-65
2021/11/08 01:50:17;;;;;;;7.22;5.95;;;7.00;99.90;;;;;;5051646;28;20024;-65
2021/11/08 01:52:43;;;;;;;8.63;5.70;;;6.90;99.90;;;;;;5055731;28;20033;-65
2021/11/08 01:55:09;;;;;;;9.75;5.18;;;6.90;99.90;;;;;;5054529;28;20033;-65
2021/11/08 01:57:36;;;;;;;8.50;5.00;;;7.30;99.90;;;;;;5055706;28;20028;-65
2021/11/08 02:00:06;;;;;;;5.68;4.80;;;6.60;99.90;;;;;;5064189;28;20262;-64
2021/11/08 02:02:31;;;;;;;8.88;5.55;;;6.50;99.90;;;;;;5074702;28;20449;-65
2021/11/08 02:04:57;;;;;;;10.55;5.25;;;6.50;99.90;;;;;;5073728;28;20096;-65
2021/11/08 02:07:23;;;;;;;8.68;4.57;;;6.50;99.90;;;;;;5074290;28;20024;-65
2021/11/08 02:09:49;;;;;;;5.30;4.65;;;6.40;99.90;;;;;;5074540;28;20017;-64
2021/11/08 02:12:15;;;;;;;6.75;4.38;;;6.30;99.90;;;;;;5074641;28;20025;-64
2021/11/08 02:14:41;;;;;;;11.50;4.88;;;6.20;99.90;;;;;;5075514;28;20032;-65
2021/11/08 02:17:10;;;;;;;10.57;5.13;;;6.10;99.90;;;;;;5078640;28;20025;-65
2021/11/08 02:19:36;;;;;;;9.68;4.88;;;6.10;99.90;;;;;;5076833;28;20386;-65
2021/11/08 02:22:05;;;;;;;6.18;4.43;;;6.20;99.90;;;;;;5078080;28;20025;-65
2021/11/08 02:24:31;;;;;;;5.38;4.60;;;6.10;99.90;;;;;;5084800;28;20020;-65
2021/11/08 02:26:57;;;;;;;11.95;4.90;;;6.10;99.90;;;;;;5079776;28;20489;-65
2021/11/08 02:29:24;;;;;;;10.07;5.13;;;6.10;99.90;;;;;;5076254;28;20025;-65
2021/11/08 02:31:50;;;;;;;7.53;5.13;;;6.10;99.90;;;;;;5076080;28;20021;-66
2021/11/08 02:34:17;;;;;;;6.47;4.43;;;5.90;99.90;;;;;;5075345;28;20390;-65
2021/11/08 02:36:43;;;;;;;11.32;4.88;;;6.20;99.90;;;;;;5075452;28;20497;-66
2021/11/08 02:39:26;;;;;;;8.35;4.35;;;5.80;99.90;;;;;;5075162;28;20111;-66
2021/11/08 02:41:52;;;;;;;6.00;4.72;;;5.60;99.90;;;;;;5074865;28;20040;-63
2021/11/08 02:44:18;;;;;;;8.38;5.05;;;6.00;99.90;;;;;;5073690;28;20025;-66
2021/11/08 02:46:44;;;;;;;8.68;4.70;;;5.50;99.90;;;;;;5073901;28;20087;-66
2021/11/08 02:49:12;;;;;;;7.47;4.50;;;5.30;99.90;;;;;;5074223;28;20017;-67
2021/11/08 02:51:44;;;;;;;9.05;4.43;;;5.50;99.90;;;;;;5073721;28;20032;-66
2021/11/08 02:54:13;;;;;;;5.72;4.53;;;5.60;99.90;;;;;;5074765;28;20035;-66
2021/11/08 02:56:39;;;;;;;6.25;4.90;;;5.20;99.90;;;;;;5073716;28;20056;-65
2021/11/08 02:59:05;;;;;;;7.05;5.05;;;5.40;99.90;;;;;;5073757;28;20028;-64
2021/11/08 03:01:32;;;;;;;12.27;5.82;;;5.10;99.90;;;;;;5072706;28;20032;-66
2021/11/08 03:04:00;;;;;;;6.60;4.82;;;4.90;99.90;;;;;;5073294;28;20036;-65
2021/11/08 03:06:33;;;;;;;8.63;5.15;;;4.90;99.90;;;;;;5072681;28;20047;-66
2021/11/08 03:09:12;;;;;;;6.97;4.38;;;4.80;99.90;;;;;;5073960;28;20060;-64
2021/11/08 03:11:38;;;;;;;10.45;4.75;;;4.70;99.90;;;;;;5074252;28;20016;-66
2021/11/08 03:14:06;;;;;;;8.05;4.82;;;4.70;99.90;;;;;;5073771;28;20074;-65
2021/11/08 03:16:46;;;;;;;6.25;4.72;;;4.80;99.90;;;;;;5071799;28;20107;-64
2021/11/08 03:19:24;;;;;;;11.52;5.45;;;4.70;99.90;;;;;;5073364;28;20424;-67
2021/11/08 03:21:53;;;;;;;7.55;5.10;;;4.60;99.90;;;;;;5073216;28;20029;-64
2021/11/08 03:24:40;;;;;;;7.63;4.90;;;4.60;99.90;;;;;;5072810;28;20029;-66
2021/11/08 03:27:23;;;;;;;7.78;4.50;;;4.50;99.90;;;;;;5072785;28;20094;-62
2021/11/08 03:29:51;;;;;;;8.43;4.82;;;4.40;99.90;;;;;;5071848;28;20521;-64
2021/11/08 03:32:18;;;;;;;6.68;4.78;;;4.20;99.90;;;;;;5072931;28;20024;-64
2021/11/08 03:35:04;;;;;;;9.77;5.35;;;4.20;99.90;;;;;;5072490;28;20028;-65
2021/11/08 03:37:41;;;;;;;8.25;4.95;;;4.10;99.90;;;;;;5073315;28;20025;-65
2021/11/08 03:40:12;;;;;;;9.43;5.03;;;4.10;99.90;;;;;;5072879;28;20028;-64
2021/11/08 03:42:38;;;;;;;10.30;5.32;;;4.00;99.90;;;;;;5073081;28;20064;-63
2021/11/08 03:45:06;;;;;;;13.45;5.38;;;3.90;99.90;;;;;;5072077;28;20517;-63
2021/11/08 03:47:32;;;;;;;8.90;5.15;;;3.90;99.90;;;;;;5073037;28;20032;-65
2021/11/08 03:49:58;;;;;;;8.75;6.10;;;3.90;99.90;;;;;;5072686;28;20108;-65
2021/11/08 03:52:24;;;;;;;9.40;5.85;;;3.80;99.90;;;;;;5072615;28;20052;-64
2021/11/08 03:54:50;;;;;;;9.07;4.70;;;4.00;99.90;;;;;;5071832;28;20028;-66
2021/11/08 03:57:16;;;;;;;7.25;5.18;;;4.00;99.90;;;;;;5072478;28;20029;-65
2021/11/08 03:59:41;;;;;;;11.73;5.63;;;4.20;99.90;;;;;;5072134;28;20024;-65
2021/11/08 04:02:07;;;;;;;6.45;4.63;;;3.70;99.90;;;;;;5072096;28;20025;-64
2021/11/08 04:04:33;;;;;;;9.95;4.53;;;3.70;99.90;;;;;;5069936;28;20029;-65
2021/11/08 04:06:59;;;;;;;8.48;4.80;;;3.60;99.90;;;;;;5072104;28;20429;-65
2021/11/08 04:09:25;;;;;;;18.42;6.15;;;3.60;99.90;;;;;;5072172;28;20063;-65
2021/11/08 04:11:50;;;;;;;7.43;4.93;;;3.60;99.90;;;;;;5071932;28;20381;-65
2021/11/08 04:14:18;;;;;;;12.98;6.20;;;3.80;99.90;;;;;;5070699;28;20025;-65
2021/11/08 04:16:44;;;;;;;9.35;5.32;;;3.70;99.90;;;;;;5072091;28;20035;-65
2021/11/08 04:19:12;;;;;;;11.55;5.13;;;3.70;99.90;;;;;;5071794;28;20408;-65
2021/11/08 04:21:38;;;;;;;12.95;5.82;;;3.70;99.90;;;;;;5072114;28;20029;-65
2021/11/08 04:24:04;;;;;;;16.35;6.13;;;3.80;99.90;;;;;;5071859;28;20033;-64
2021/11/08 04:26:32;;;;;;;9.05;5.57;;;3.80;99.90;;;;;;5071269;28;20037;-65
2021/11/08 04:29:02;;;;;;;13.30;6.05;;;3.90;99.90;;;;;;5071708;28;20024;-65
2021/11/08 04:31:29;;;;;;;14.38;6.13;;;4.00;99.90;;;;;;5071411;28;20386;-65
2021/11/08 04:34:19;;;;;;;10.73;6.00;;;5.10;99.90;;;;;;5071760;28;20040;-65
2021/11/08 04:37:08;;;;;;;14.15;7.47;;;4.10;99.90;;;;;;5071375;28;20033;-64
2021/11/08 04:50:14;;;;;;;17.15;7.15;;;4.40;99.90;;;;;;5071447;28;20032;-66
2021/11/08 04:58:17;;;;;;;13.88;6.47;;;4.50;99.90;;;;;;5071953;28;20059;-66
2021/11/08 05:30:16;;;;;;;16.45;7.82;;;4.40;99.90;;;;;;5074937;28;20027;-70
2021/11/08 05:32:45;;;;;;;14.20;7.50;;;4.40;99.90;;;;;;5074902;28;20020;-69
2021/11/08 05:35:14;;;;;;;21.65;8.25;;;4.70;99.90;;;;;;5073685;28;20096;-69
2021/11/08 05:37:45;;;;;;;20.33;9.30;;;4.50;99.90;;;;;;5074946;28;20446;-70
2021/11/08 05:40:15;;;;;;;19.15;8.00;;;4.50;99.90;;;;;;5074803;28;20101;-70
2021/11/08 05:42:42;;;;;;;18.55;7.55;;;4.60;99.90;;;;;;5074839;28;20031;-70
2021/11/08 05:45:12;;;;;;;14.50;7.18;;;4.60;99.90;;;;;;5073726;28;20074;-70
2021/11/08 05:47:38;;;;;;;16.10;7.65;;;4.60;99.90;;;;;;5074969;28;20040;-70
2021/11/08 05:50:06;;;;;;;17.38;6.95;;;4.50;99.90;;;;;;5074397;28;20028;-70
2021/11/08 05:52:32;;;;;;;12.90;6.97;;;4.50;99.90;;;;;;5074582;28;20474;-69
2021/11/08 05:54:59;;;;;;;26.85;7.93;;;4.50;99.90;;;;;;5073507;28;20043;-69
2021/11/08 06:49:38;;;;;;;163.98;12.00;;;4.00;99.90;;;;;;5073815;28;20023;-70
2021/11/08 06:52:05;;;;;;;17.35;8.18;;;4.00;99.90;;;;;;5073649;28;20407;-70
2021/11/08 06:54:31;;;;;;;15.75;8.15;;;4.10;99.90;;;;;;5072739;28;20028;-70
2021/11/08 06:57:10;;;;;;;60.55;12.32;;;4.00;99.90;;;;;;5073139;28;20024;-70
2021/11/08 06:59:36;;;;;;;9.32;7.40;;;4.00;99.90;;;;;;5073512;28;20035;-70
2021/11/08 07:02:01;;;;;;;16.00;7.85;;;3.90;99.90;;;;;;5073545;28;20028;-69
2021/11/08 07:04:27;;;;;;;11.27;7.28;;;3.90;99.90;;;;;;5072790;28;20058;-70
2021/11/08 07:06:53;;;;;;;26.90;9.15;;;3.90;99.90;;;;;;5072933;28;20027;-70
2021/11/08 07:09:18;;;;;;;15.63;8.98;;;4.00;99.90;;;;;;5073116;28;20047;-70
2021/11/08 07:11:45;;;;;;;13.02;8.23;;;4.20;99.90;;;;;;5072673;28;20024;-65
2021/11/08 07:14:11;;;;;;;67.60;8.95;;;4.10;99.90;;;;;;5073225;28;20024;-66
2021/11/08 07:16:38;;;;;;;10.70;7.80;;;4.20;99.90;;;;;;5073031;28;20024;-66
2021/11/08 07:19:07;;;;;;;11.93;6.90;;;4.30;99.90;;;;;;5073435;28;20027;-64
2021/11/08 07:21:34;;;;;;;44.35;9.45;;;4.20;99.90;;;;;;5072309;28;20154;-68
2021/11/08 07:24:00;;;;;;;12.07;6.70;;;4.30;99.90;;;;;;5072663;28;20028;-68
2021/11/08 07:26:26;;;;;;;23.98;8.00;;;4.30;99.90;;;;;;5072206;28;20493;-67
2021/11/08 07:28:52;;;;;;;129.32;10.77;;;4.30;99.90;;;;;;5071543;28;20127;-69
2021/11/08 07:31:18;;;;;;;87.68;8.48;;;4.20;99.90;;;;;;5072786;28;20067;-69
2021/11/08 07:33:44;;;;;;;83.60;8.18;;;4.20;99.90;;;;;;5072596;28;20031;-68
2021/11/08 07:36:10;;;;;;;178.40;11.27;;;4.20;99.90;;;;;;5071776;28;20028;-68
2021/11/08 07:38:37;;;;;;;186.50;11.38;;;4.10;99.90;;;;;;5072445;28;20062;-68
2021/11/08 07:41:07;;;;;;;30.08;7.90;;;4.10;99.90;;;;;;5072497;28;20021;-67
2021/11/08 07:43:34;;;;;;;10.25;7.50;;;4.10;99.90;;;;;;5072496;28;20029;-69
2021/11/08 07:46:00;;;;;;;9.45;7.70;;;4.30;99.90;;;;;;5072004;28;20021;-67
2021/11/08 07:48:26;;;;;;;33.03;8.80;;;4.30;99.90;;;;;;5072326;28;20028;-68
2021/11/08 07:50:52;;;;;;;85.90;11.95;;;4.90;99.90;;;;;;5072206;28;20036;-67
2021/11/08 07:53:18;;;;;;;12.40;7.20;;;4.50;99.90;;;;;;5072406;28;20371;-69
2021/11/08 07:55:45;;;;;;;54.88;8.52;;;4.80;99.90;;;;;;5071590;28;20078;-68
2021/11/08 07:58:11;;;;;;;90.65;9.75;;;4.60;99.90;;;;;;5072227;28;20025;-69
2021/11/08 08:00:39;;;;;;;19.13;10.32;;;4.60;99.90;;;;;;5072112;28;20025;-69
2021/11/08 08:03:05;;;;;;;155.07;44.10;;;4.70;99.90;;;;;;5072117;28;20537;-69
2021/11/08 08:05:32;;;;;;;102.75;20.98;;;5.30;99.90;;;;;;5071030;28;20052;-69
2021/11/08 08:07:58;;;;;;;42.53;9.43;;;4.90;99.90;;;;;;5071963;28;20104;-67
2021/11/08 08:10:25;;;;;;;10.52;7.30;;;4.80;99.90;;;;;;5072014;28;20519;-68
2021/11/08 08:12:51;;;;;;;13.32;7.43;;;4.80;99.90;;;;;;5072252;28;20432;-68
2021/11/08 08:15:17;;;;;;;65.40;7.72;;;4.90;99.90;;;;;;5071282;28;20017;-68
2021/11/08 08:17:43;;;;;;;18.75;7.30;;;4.80;99.90;;;;;;5071908;28;20028;-68
2021/11/08 08:20:21;;;;;;;49.55;7.03;;;4.90;99.90;;;;;;5071513;28;20029;-68
2021/11/08 08:22:47;;;;;;;63.20;7.55;;;5.20;99.90;;;;;;5071865;28;20516;-68
2021/11/08 08:25:13;;;;;;;67.88;7.78;;;5.50;99.90;;;;;;5071138;28;20544;-69
2021/11/08 08:27:41;;;;;;;14.27;6.60;;;4.80;99.90;;;;;;5071814;28;20103;-68
2021/11/08 08:30:08;;;;;;;32.50;6.50;;;5.10;99.90;;;;;;5070837;28;20051;-69
2021/11/08 08:32:39;;;;;;;12.55;6.63;;;4.70;99.90;;;;;;5071876;28;20471;-70
2021/11/08 08:35:07;;;;;;;65.90;10.00;;;4.90;99.90;;;;;;5069593;28;20024;-69
2021/11/08 08:37:33;;;;;;;55.53;7.78;;;4.90;99.90;;;;;;5072092;28;20266;-69
2021/11/08 08:39:59;;;;;;;55.88;9.27;;;4.80;99.90;;;;;;5071649;28;20107;-69
2021/11/08 08:42:25;;;;;;;51.72;9.00;;;4.80;99.90;;;;;;5072087;28;20119;-69
2021/11/08 08:44:52;;;;;;;45.65;8.57;;;4.90;99.90;;;;;;5071316;28;20029;-69
2021/11/08 08:47:18;;;;;;;17.75;7.22;;;5.00;99.90;;;;;;5071763;28;20463;-67
2021/11/08 08:49:45;;;;;;;12.43;7.18;;;5.00;99.90;;;;;;5070567;28;20032;-68
2021/11/08 08:52:12;;;;;;;27.45;7.72;;;5.10;99.90;;;;;;5071124;28;20060;-71
2021/11/08 08:54:41;;;;;;;35.45;7.50;;;5.30;99.90;;;;;;5071154;28;20040;-69
2021/11/08 08:57:09;;;;;;;37.50;9.57;;;5.40;99.90;;;;;;5071569;28;20101;-69
2021/11/08 08:59:35;;;;;;;26.65;8.15;;;5.60;99.90;;;;;;5073800;28;20048;-69
2021/11/08 09:02:01;;;;;;;22.38;7.68;;;5.60;99.90;;;;;;5077817;28;20509;-69
2021/11/08 09:04:27;;;;;;;37.58;7.88;;;5.70;99.90;;;;;;5077473;28;20090;-69
2021/11/08 09:06:53;;;;;;;23.25;8.25;;;5.70;99.90;;;;;;5077966;28;20493;-68
2021/11/08 09:09:19;;;;;;;16.52;7.47;;;5.80;99.90;;;;;;5077733;28;20020;-69
2021/11/08 09:11:45;;;;;;;22.02;6.72;;;5.70;99.90;;;;;;5078034;28;20550;-68
2021/11/08 09:14:11;;;;;;;43.92;7.40;;;5.70;99.90;;;;;;5078045;28;20039;-68
2021/11/08 09:16:37;;;;;;;17.05;7.32;;;5.80;99.90;;;;;;5076160;28;20099;-69
2021/11/08 09:19:03;;;;;;;10.30;7.38;;;5.80;99.90;;;;;;5078143;28;20120;-68
2021/11/08 09:21:30;;;;;;;10.45;6.68;;;5.80;99.90;;;;;;5078001;28;20039;-69
2021/11/08 09:23:59;;;;;;;27.85;7.15;;;5.70;99.90;;;;;;5077978;28;20150;-69
2021/11/08 09:26:28;;;;;;;14.93;7.43;;;5.80;99.90;;;;;;5077188;28;20024;-69
2021/11/08 09:28:54;;;;;;;23.92;7.22;;;5.80;99.90;;;;;;5077888;28;20099;-70
2021/11/08 09:31:21;;;;;;;24.10;8.68;;;5.90;99.90;;;;;;5077903;28;20107;-70
2021/11/08 09:33:52;;;;;;;10.65;7.45;;;6.00;99.90;;;;;;5078106;28;20058;-68
2021/11/08 09:36:18;;;;;;;13.18;7.88;;;6.10;99.90;;;;;;5076685;28;20024;-69
2021/11/08 09:38:55;;;;;;;10.63;7.20;;;6.40;99.90;;;;;;5077960;28;20024;-74
2021/11/08 09:41:24;;;;;;;13.30;7.22;;;6.60;99.90;;;;;;5077769;28;20047;-69
2021/11/08 09:43:52;;;;;;;9.43;5.65;;;7.10;99.90;;;;;;5078102;28;20036;-69
2021/11/08 09:46:18;;;;;;;9.55;5.88;;;7.20;99.90;;;;;;5077309;28;20028;-69
2021/11/08 09:48:44;;;;;;;8.35;4.90;;;7.60;99.90;;;;;;5077809;28;20021;-69
2021/11/08 09:51:13;;;;;;;6.60;4.78;;;9.50;99.90;;;;;;5077606;28;20090;-69
2021/11/08 09:53:39;;;;;;;5.22;4.07;;;11.00;99.90;;;;;;5076672;28;20025;-71
2021/11/08 09:56:09;;;;;;;4.88;4.30;;;12.00;99.90;;;;;;5077223;28;20028;-71
2021/11/08 09:58:35;;;;;;;4.50;3.67;;;12.70;99.90;;;;;;5077657;28;20059;-70
2021/11/08 10:01:10;;;;;;;4.13;3.70;;;12.10;99.90;;;;;;5078050;28;20059;-69
2021/11/08 10:03:37;;;;;;;4.68;4.07;;;12.60;99.90;;;;;;5077636;28;20474;-68
2021/11/08 10:06:04;;;;;;;5.03;4.00;;;13.40;99.90;;;;;;5076764;28;20020;-70
2021/11/08 10:08:33;;;;;;;6.28;4.05;;;14.20;99.90;;;;;;5077572;28;20016;-69
2021/11/08 10:11:08;;;;;;;4.00;3.60;;;15.00;99.90;;;;;;5075457;28;20024;-70
2021/11/08 10:13:36;;;;;;;4.32;3.67;;;16.10;99.90;;;;;;5074535;28;20651;-71
2021/11/08 10:16:11;;;;;;;6.45;3.88;;;16.50;99.90;;;;;;5073673;28;20024;-70
2021/11/08 10:18:40;;;;;;;5.20;4.00;;;16.70;99.90;;;;;;5081358;28;20035;-70
2021/11/08 10:21:30;;;;;;;4.00;3.63;;;16.60;99.90;;;;;;5082610;28;20487;-68
2021/11/08 10:23:57;;;;;;;6.10;3.60;;;16.70;99.90;;;;;;5083869;28;20049;-69
2021/11/08 10:26:27;;;;;;;4.22;3.67;;;17.20;99.90;;;;;;5075377;28;20027;-70
2021/11/08 10:29:11;;;;;;;3.95;3.55;;;17.50;99.90;;;;;;5080387;28;20042;-69
2021/11/08 10:31:42;;;;;;;6.30;4.28;;;16.90;99.80;;;;;;5075413;28;20378;-69
2021/11/08 10:34:11;;;;;;;8.23;4.28;;;17.50;99.80;;;;;;5074095;28;20041;-70
2021/11/08 10:36:37;;;;;;;6.72;4.30;;;17.70;99.50;;;;;;5073047;28;20104;-68
2021/11/08 10:39:06;;;;;;;5.90;3.90;;;17.30;99.90;;;;;;5073869;28;20089;-72
2021/11/08 10:41:36;;;;;;;7.10;4.22;;;17.60;99.80;;;;;;5073651;28;20059;-68
2021/11/08 10:44:16;;;;;;;6.25;4.32;;;17.70;99.90;;;;;;5073713;28;20032;-69
2021/11/08 10:46:45;;;;;;;10.05;4.53;;;17.70;99.70;;;;;;5073652;28;20020;-70
2021/11/08 10:49:24;;;;;;;8.32;4.13;;;18.40;98.30;;;;;;5073616;28;20025;-71
2021/11/08 10:51:53;;;;;;;7.32;3.38;;;18.60;97.50;;;;;;5073248;28;20551;-70
2021/11/08 10:54:29;;;;;;;7.35;3.92;;;18.70;97.20;;;;;;5072929;28;20021;-68
2021/11/08 10:57:05;;;;;;;6.95;3.50;;;18.70;97.20;;;;;;5073452;28;20028;-68
2021/11/08 10:59:48;;;;;;;7.50;3.53;;;19.00;97.30;;;;;;5073376;28;20541;-68
2021/11/08 11:02:18;;;;;;;5.88;3.40;;;19.40;96.60;;;;;;5073518;28;20032;-69
2021/11/08 11:04:50;;;;;;;10.27;3.15;;;19.10;96.00;;;;;;5072366;28;20505;-69
2021/11/08 11:07:34;;;;;;;7.28;3.80;;;19.30;95.10;;;;;;5073091;28;20051;-70
2021/11/08 11:10:08;;;;;;;7.03;3.47;;;19.80;95.20;;;;;;5073077;28;20024;-69
2021/11/08 11:12:36;;;;;;;10.50;3.83;;;19.90;95.00;;;;;;5073427;28;20052;-68
2021/11/08 11:15:09;;;;;;;12.57;3.58;;;19.90;93.10;;;;;;5072377;28;20028;-69
2021/11/08 11:17:40;;;;;;;9.65;3.15;;;19.80;92.40;;;;;;5073213;28;20028;-71
2021/11/08 11:20:16;;;;;;;8.40;2.35;;;19.70;92.10;;;;;;5073053;28;20422;-69
2021/11/08 11:22:48;;;;;;;11.50;2.80;;;19.30;92.10;;;;;;5072705;28;20539;-69
2021/11/08 11:25:16;;;;;;;10.35;2.72;;;19.50;92.60;;;;;;5072444;28;20115;-69
2021/11/08 11:27:49;;;;;;;9.02;3.00;;;19.70;92.20;;;;;;5073078;28;20086;-69
2021/11/08 11:30:18;;;;;;;11.45;2.90;;;20.30;90.90;;;;;;5073163;28;20084;-69
2021/11/08 11:32:45;;;;;;;10.02;3.40;;;20.30;91.60;;;;;;5073866;28;20024;-70
2021/11/08 11:35:20;;;;;;;9.10;2.78;;;20.10;90.80;;;;;;5073180;28;20033;-68
2021/11/08 11:38:05;;;;;;;10.63;3.00;;;20.00;91.40;;;;;;5073940;28;20025;-71
2021/11/08 11:40:42;;;;;;;10.35;3.22;;;19.90;91.40;;;;;;5073969;28;20107;-70
2021/11/08 11:43:11;;;;;;;7.47;2.90;;;19.90;91.30;;;;;;5071335;28;20056;-70
2021/11/08 11:45:51;;;;;;;6.13;2.75;;;19.90;91.00;;;;;;5072146;28;20036;-70
2021/11/08 11:48:19;;;;;;;12.30;3.00;;;19.90;90.70;;;;;;5072721;28;20052;-70
2021/11/08 11:50:45;;;;;;;10.45;2.78;;;19.70;90.80;;;;;;5071763;28;20039;-70
2021/11/08 11:53:11;;;;;;;8.48;2.85;;;19.60;91.30;;;;;;5072346;28;20040;-69
2021/11/08 11:55:39;;;;;;;11.45;2.95;;;19.90;91.00;;;;;;5070335;28;20032;-70
2021/11/08 11:58:05;;;;;;;11.13;3.40;;;20.30;90.10;;;;;;5072506;28;20105;-68
2021/11/08 12:00:35;;;;;;;11.38;3.10;;;20.30;90.00;;;;;;5072122;28;20466;-69
2021/11/08 12:03:02;;;;;;;12.32;3.08;;;19.70;90.00;;;;;;5072071;28;20359;-68
2021/11/08 12:05:31;;;;;;;10.20;3.05;;;19.10;91.00;;;;;;5071390;28;20024;-71
2021/11/08 12:08:10;;;;;;;8.02;2.72;;;18.60;91.90;;;;;;5072199;28;20470;-69
2021/11/08 12:10:44;;;;;;;11.50;2.97;;;18.90;91.80;;;;;;5072206;28;20021;-70
2021/11/08 12:13:17;;;;;;;13.48;2.80;;;19.30;89.00;;;;;;5072287;28;20017;-70
2021/11/08 12:15:43;;;;;;;11.60;3.40;;;19.20;90.00;;;;;;5071318;28;20031;-68
2021/11/08 12:18:12;;;;;;;8.45;2.75;;;19.40;90.00;;;;;;5072184;28;20021;-68
2021/11/08 12:20:49;;;;;;;10.15;3.25;;;19.30;88.30;;;;;;5072052;28;20029;-69
2021/11/08 12:23:28;;;;;;;11.95;3.13;;;18.90;86.90;;;;;;5071931;28;20100;-69
2021/11/08 12:25:54;;;;;;;13.32;2.53;;;17.20;91.00;;;;;;5071155;28;20025;-70
2021/11/08 12:28:23;;;;;;;11.80;3.30;;;16.30;93.60;;;;;;5071977;28;20471;-69
2021/11/08 12:30:52;;;;;;;11.77;3.25;;;14.90;94.80;;;;;;5072483;28;20107;-70
2021/11/08 12:33:28;;;;;;;9.80;3.45;;;14.00;97.50;;;;;;5071855;28;20393;-69
2021/11/08 12:36:06;;;;;;;13.90;3.42;;;13.60;98.40;;;;;;5070408;28;20031;-70
2021/11/08 12:38:40;;;;;;;13.27;3.53;;;13.10;98.60;;;;;;5071215;28;20035;-67
2021/11/08 12:41:24;;;;;;;15.75;4.70;;;12.70;99.90;;;;;;5071949;28;20040;-68
2021/11/08 12:43:58;;;;;;;16.05;3.60;;;12.30;99.90;;;;;;5071701;28;20025;-68
2021/11/08 12:46:35;;;;;;;11.85;3.50;;;12.20;99.90;;;;;;5071218;28;20032;-69
2021/11/08 12:49:09;;;;;;;14.13;3.60;;;12.20;99.90;;;;;;5071704;28;20544;-70
2021/11/08 12:51:37;;;;;;;11.57;3.88;;;12.00;99.90;;;;;;5071562;28;20066;-70
2021/11/08 12:54:09;;;;;;;12.52;4.47;;;12.00;99.90;;;;;;5072143;28;20029;-69
2021/11/08 12:56:44;;;;;;;16.27;3.92;;;12.10;99.90;;;;;;5071442;28;20379;-69
2021/11/08 12:59:25;;;;;;;16.30;4.07;;;11.90;99.90;;;;;;5071772;28;20560;-67
2021/11/08 13:02:09;;;;;;;10.07;3.45;;;10.00;99.90;;;;;;5071769;28;20044;-70
2021/11/08 13:04:48;;;;;;;9.88;3.63;;;11.90;99.90;;;;;;5071267;28;20458;-69
2021/11/08 13:07:16;;;;;;;12.45;3.50;;;11.70;99.90;;;;;;5071435;28;20048;-69
2021/11/08 13:09:52;;;;;;;15.75;4.30;;;11.60;99.90;;;;;;5071423;28;20535;-70
2021/11/08 13:12:41;;;;;;;14.38;4.45;;;11.80;99.90;;;;;;5071606;28;20516;-70
2021/11/08 13:15:07;;;;;;;18.63;4.05;;;11.40;99.90;;;;;;5064384;28;20401;-67
2021/11/08 13:17:45;;;;;;;15.48;4.30;;;11.50;99.90;;;;;;5071535;28;20475;-69
2021/11/08 13:20:11;;;;;;;14.93;5.18;;;11.60;99.90;;;;;;5069916;28;20024;-68
2021/11/08 13:22:40;;;;;;;16.23;5.80;;;12.00;99.90;;;;;;5071167;28;20048;-69
2021/11/08 13:25:15;;;;;;;13.55;5.07;;;13.50;99.90;;;;;;5070676;28;20086;-70
2021/11/08 13:27:52;;;;;;;18.27;7.65;;;15.20;98.90;;;;;;5070148;28;20029;-69
2021/11/08 13:30:29;;;;;;;12.57;6.00;;;16.40;97.00;;;;;;5071121;28;20441;-70
2021/11/08 13:32:54;;;;;;;8.13;2.47;;;17.10;95.20;;;;;;5071285;28;20024;-70
2021/11/08 13:35:26;;;;;;;8.48;2.60;;;16.90;93.70;;;;;;5070559;28;20074;-70
2021/11/08 13:38:14;;;;;;;8.98;2.45;;;17.30;91.80;;;;;;5070855;28;20025;-69
2021/11/08 13:40:45;;;;;;;11.02;2.20;;;17.90;91.00;;;;;;5071196;28;20086;-71
2021/11/08 13:43:19;;;;;;;9.35;2.40;;;18.20;90.80;;;;;;5070983;28;20021;-71
2021/11/08 13:46:06;;;;;;;7.20;2.03;;;17.90;91.10;;;;;;5071553;28;20016;-70
2021/11/08 13:48:42;;;;;;;7.60;2.47;;;18.30;90.10;;;;;;5074859;28;20103;-69
2021/11/08 13:51:30;;;;;;;9.02;2.13;;;18.50;90.70;;;;;;5074420;28;20036;-70
2021/11/08 13:53:59;;;;;;;6.57;2.50;;;18.80;90.10;;;;;;5073753;28;20038;-70
2021/11/08 13:56:34;;;;;;;7.65;2.42;;;19.70;88.20;;;;;;5074523;28;20363;-69
2021/11/08 13:59:02;;;;;;;6.05;2.05;;;19.70;85.80;;;;;;5074799;28;20028;-68
2021/11/08 14:01:31;;;;;;;6.22;2.13;;;19.60;83.40;;;;;;5074633;28;20029;-68
2021/11/08 14:03:57;;;;;;;6.57;2.30;;;19.40;84.60;;;;;;5074241;28;20028;-68
2021/11/08 14:06:41;;;;;;;8.20;2.72;;;19.40;84.10;;;;;;5073865;28;20025;-69
2021/11/08 14:09:21;;;;;;;6.45;2.38;;;19.30;84.80;;;;;;5074369;28;20475;-68
2021/11/08 14:11:50;;;;;;;10.45;2.22;;;18.70;85.60;;;;;;5074493;28;20020;-68
2021/11/08 14:14:22;;;;;;;5.45;2.20;;;18.60;86.20;;;;;;5065795;28;20021;-74
2021/11/08 14:16:49;;;;;;;;;;;18.50;85.90;;;;;;5059003;28;20021;-74
2021/11/08 14:19:17;;;;;;;7.43;2.30;;;18.40;86.10;;;;;;5074808;28;20046;-68
2021/11/08 14:21:45;;;;;;;5.65;2.70;;;18.50;85.90;;;;;;5067649;28;20036;-70
2021/11/08 14:24:14;;;;;;;6.60;2.00;;;18.50;87.90;;;;;;5054545;28;20396;-70
2021/11/08 14:26:46;;;;;;;9.50;2.60;;;18.50;86.10;;;;;;5053689;28;20102;-67
2021/11/08 14:29:18;;;;;;;7.57;2.50;;;18.30;85.70;;;;;;5054010;28;20031;-68
2021/11/08 14:31:50;;;;;;;;;;;18.40;85.70;;;;;;5058322;28;20021;-68
2021/11/08 14:34:19;;;;;;;9.30;1.83;;;17.90;88.20;;;;;;5061329;28;19999;-69
2021/11/08 14:36:47;;;;;;;11.13;2.58;;;16.70;90.20;;;;;;5053461;28;20499;-68
2021/11/08 14:39:17;;;;;;;9.57;2.15;;;15.90;91.10;;;;;;5053742;28;20426;-70
2021/11/08 14:41:50;;;;;;;12.48;2.45;;;15.20;93.00;;;;;;5054079;28;20402;-68
2021/11/08 14:44:16;;;;;;;11.25;2.97;;;14.40;93.90;;;;;;5052969;28;20479;-69